createdAt,value
2019-04-25T00:02:07.730Z,100350.98
2019-04-25T00:04:38.732Z,100349.62
2019-04-25T00:07:09.466Z,100351.50
2019-04-25T00:09:42.773Z,100350.00
2019-04-25T00:12:13.853Z,100351.55
2019-04-25T00:14:44.662Z,100351.97
2019-04-25T00:17:15.319Z,100358.77
2019-04-25T00:19:46.453Z,100363.89
2019-04-25T00:22:18.636Z,100358.57
2019-04-25T00:25:15.039Z,100358.44
2019-04-25T00:27:38.235Z,100355.23
2019-04-25T00:30:09.058Z,100360.37
2019-04-25T00:32:41.247Z,100359.36
2019-04-25T00:35:12.019Z,100355.59
2019-04-25T00:37:44.335Z,100357.20
2019-04-25T00:40:15.320Z,100362.91
2019-04-25T00:42:46.249Z,100363.15
2019-04-25T00:45:16.949Z,100364.00
2019-04-25T00:47:47.752Z,100371.20
2019-04-25T00:50:18.388Z,100374.30
2019-04-25T00:52:48.982Z,100377.88
2019-04-25T00:55:26.826Z,100380.47
2019-04-25T00:57:53.689Z,100377.88
2019-04-25T01:00:44.821Z,100381.41
2019-04-25T01:03:17.283Z,100380.89
2019-04-25T01:05:47.877Z,100379.91
2019-04-25T01:08:18.466Z,100383.44
2019-04-25T01:10:49.968Z,100387.16
2019-04-25T01:13:22.318Z,100384.52
2019-04-25T01:15:53.740Z,100386.92
2019-04-25T01:18:25.226Z,100385.27
2019-04-25T01:20:57.338Z,100385.37
2019-04-25T01:23:27.985Z,100386.26
2019-04-25T01:25:58.952Z,100389.88
2019-04-25T01:28:29.732Z,100390.35
2019-04-25T01:31:00.801Z,100386.36
2019-04-25T01:33:31.359Z,100380.19
2019-04-25T01:36:20.982Z,100386.12
2019-04-25T01:38:56.142Z,100385.32
2019-04-25T01:41:34.191Z,100380.09
2019-04-25T01:44:06.753Z,100383.53
2019-04-25T01:46:39.430Z,100374.36
2019-04-25T01:49:09.993Z,100374.03
2019-04-25T01:51:40.744Z,100378.45
2019-04-25T01:54:11.403Z,100376.90
2019-04-25T01:56:42.187Z,100381.04
2019-04-25T01:59:13.502Z,100374.27
2019-04-25T02:01:45.699Z,100379.06
2019-04-25T02:04:16.356Z,100381.93
2019-04-25T02:06:46.926Z,100376.52
2019-04-25T02:09:17.516Z,100374.83
2019-04-25T02:11:50.930Z,100369.60
2019-04-25T02:14:21.548Z,100373.69
2019-04-25T02:16:55.807Z,100368.09
2019-04-25T02:19:26.383Z,100362.41
2019-04-25T02:21:57.773Z,100366.92
2019-04-25T02:24:28.636Z,100364.58
2019-04-25T02:26:59.211Z,100355.22
2019-04-25T02:29:30.173Z,100368.85
2019-04-25T02:32:03.019Z,100357.75
2019-04-25T02:34:34.566Z,100354.75
2019-04-25T02:37:09.458Z,100359.49
2019-04-25T02:39:38.234Z,100352.48
2019-04-25T02:42:08.955Z,100358.02
2019-04-25T02:44:41.361Z,100357.12
2019-04-25T02:47:24.760Z,100361.20
2019-04-25T02:50:07.087Z,100371.32
2019-04-25T02:52:39.821Z,100372.27
2019-04-25T02:55:15.947Z,100370.87
2019-04-25T02:57:44.844Z,100383.47
2019-04-25T03:00:25.864Z,100400.20
2019-04-25T03:02:57.917Z,100410.00
2019-04-25T03:05:29.756Z,100414.42
2019-04-25T03:08:01.611Z,100421.38
2019-04-25T03:10:34.847Z,100430.74
2019-04-25T03:13:11.254Z,100441.36
2019-04-25T03:15:37.929Z,100431.81
2019-04-25T03:18:12.094Z,100417.37
2019-04-25T03:20:45.381Z,100404.89
2019-04-25T03:23:35.159Z,100403.89
2019-04-25T03:26:06.613Z,100396.41
2019-04-25T03:28:38.207Z,100409.27
2019-04-25T03:31:15.177Z,100401.91
2019-04-25T03:33:41.398Z,100407.21
2019-04-25T03:36:11.996Z,100412.63
2019-04-25T03:38:44.076Z,100414.39
2019-04-25T03:41:14.852Z,100415.57
2019-04-25T03:43:45.735Z,100418.41
2019-04-25T03:46:16.446Z,100416.02
2019-04-25T03:48:48.614Z,100413.40
2019-04-25T03:51:19.189Z,100418.62
2019-04-25T03:53:50.869Z,100410.48
2019-04-25T03:56:21.460Z,100410.12
2019-04-25T03:58:52.666Z,100412.80
2019-04-25T04:01:25.594Z,100417.37
2019-04-25T04:03:56.296Z,100420.43
2019-04-25T04:06:26.894Z,100423.01
2019-04-25T04:08:57.483Z,100424.19
2019-04-25T04:11:29.052Z,100418.77
2019-04-25T04:13:59.615Z,100435.39
2019-04-25T04:16:31.827Z,100444.20
2019-04-25T04:19:03.997Z,100456.06
2019-04-25T04:21:36.387Z,100451.57
2019-04-25T04:24:11.744Z,100443.98
2019-04-25T04:26:43.097Z,100447.64
2019-04-25T04:29:14.948Z,100450.00
2019-04-25T04:31:45.855Z,100443.05
2019-04-25T04:34:17.020Z,100444.08
2019-04-25T04:36:47.782Z,100439.05
2019-04-25T04:39:18.821Z,100434.81
2019-04-25T04:41:49.456Z,100444.78
2019-04-25T04:44:20.139Z,100450.66
2019-04-25T04:46:50.734Z,100452.55
2019-04-25T04:49:21.299Z,100459.00
2019-04-25T04:51:51.880Z,100450.86
2019-04-25T04:54:23.097Z,100448.98
2019-04-25T04:56:53.764Z,100445.97
2019-04-25T04:59:24.888Z,100456.46
2019-04-25T05:02:15.035Z,100454.14
2019-04-25T05:04:46.370Z,100446.17
2019-04-25T05:07:25.330Z,100456.16
2019-04-25T05:09:55.939Z,100453.22
2019-04-25T05:12:26.528Z,100451.84
2019-04-25T05:14:57.115Z,100444.89
2019-04-25T05:17:27.719Z,100457.52
2019-04-25T05:19:59.006Z,100456.80
2019-04-25T05:22:29.571Z,100458.05
2019-04-25T05:25:00.158Z,100468.44
2019-04-25T05:27:39.193Z,100465.54
2019-04-25T05:30:09.905Z,100469.01
2019-04-25T05:32:40.562Z,100462.91
2019-04-25T05:35:11.275Z,100466.58
2019-04-25T05:37:43.524Z,100468.66
2019-04-25T05:40:15.823Z,100482.86
2019-04-25T05:42:48.671Z,100495.93
2019-04-25T05:45:21.266Z,100502.78
2019-04-25T05:47:51.844Z,100503.58
2019-04-25T05:50:24.005Z,100509.30
2019-04-25T05:52:54.730Z,100518.61
2019-04-25T05:55:25.311Z,100515.80
2019-04-25T05:57:55.893Z,100523.23
2019-04-25T06:00:27.129Z,100530.52
2019-04-25T06:02:57.767Z,100529.00
2019-04-25T06:05:28.442Z,100531.36
2019-04-25T06:07:59.020Z,100537.81
2019-04-25T06:10:33.963Z,100526.02
2019-04-25T06:13:15.432Z,100527.47
2019-04-25T06:15:48.632Z,100525.27
2019-04-25T06:18:37.128Z,100519.02
2019-04-25T06:21:09.515Z,100523.69
2019-04-25T06:23:51.023Z,100525.91
2019-04-25T06:26:31.015Z,100501.67
2019-04-25T06:28:58.999Z,100524.52
2019-04-25T06:31:26.928Z,100520.62
2019-04-25T06:33:58.481Z,100519.42
2019-04-25T06:36:29.090Z,100529.27
2019-04-25T06:38:59.662Z,100532.42
2019-04-25T06:41:30.240Z,100532.17
2019-04-25T06:44:05.342Z,100536.91
2019-04-25T06:46:49.645Z,100541.09
2019-04-25T06:49:26.442Z,100534.94
2019-04-25T06:51:57.112Z,100541.84
2019-04-25T06:54:28.186Z,100546.85
2019-04-25T06:56:58.703Z,100545.73
2019-04-25T06:59:30.056Z,100546.37
2019-04-25T07:02:00.745Z,100548.17
2019-04-25T07:04:31.474Z,100551.15
2019-04-25T07:07:10.659Z,100559.84
2019-04-25T07:09:35.739Z,100554.28
2019-04-25T07:12:06.535Z,100552.14
2019-04-25T07:14:37.128Z,100552.97
2019-04-25T07:17:07.720Z,100569.84
2019-04-25T07:19:38.297Z,100573.16
2019-04-25T07:22:08.882Z,100563.55
2019-04-25T07:24:39.460Z,100572.93
2019-04-25T07:27:28.412Z,100575.50
2019-04-25T07:30:26.964Z,100579.02
2019-04-25T07:33:07.226Z,100587.34
2019-04-25T07:35:37.850Z,100581.73
2019-04-25T07:38:08.413Z,100594.60
2019-04-25T07:40:39.101Z,100586.78
2019-04-25T07:43:10.154Z,100582.94
2019-04-25T07:45:41.395Z,100583.13
2019-04-25T07:48:13.857Z,100582.63
2019-04-25T07:50:44.686Z,100582.55
2019-04-25T07:53:15.325Z,100584.48
2019-04-25T07:55:45.935Z,100589.94
2019-04-25T07:58:16.568Z,100583.89
2019-04-25T08:00:47.156Z,100592.09
2019-04-25T08:03:17.956Z,100589.03
2019-04-25T08:05:48.564Z,100595.50
2019-04-25T08:08:19.714Z,100590.59
2019-04-25T08:10:56.832Z,100589.23
2019-04-25T08:13:30.032Z,100598.89
2019-04-25T08:16:03.403Z,100604.61
2019-04-25T08:18:35.085Z,100608.32
2019-04-25T08:21:06.781Z,100605.00
2019-04-25T08:23:38.936Z,100604.27
2019-04-25T08:26:10.574Z,100603.02
2019-04-25T08:28:54.275Z,100603.36
2019-04-25T08:31:13.691Z,100614.53
2019-04-25T08:33:46.513Z,100612.95
2019-04-25T08:36:16.731Z,100613.12
2019-04-25T08:38:47.531Z,100618.09
2019-04-25T08:41:18.111Z,100613.27
2019-04-25T08:43:48.680Z,100611.38
2019-04-25T08:46:19.257Z,100611.14
2019-04-25T08:49:09.873Z,100600.92
2019-04-25T08:51:42.093Z,100601.19
2019-04-25T08:54:18.835Z,100595.33
2019-04-25T08:56:49.418Z,100603.13
2019-04-25T08:59:44.487Z,100608.37
2019-04-25T09:02:13.792Z,100621.65
2019-04-25T09:05:02.017Z,100621.27
2019-04-25T09:07:35.390Z,100621.48
2019-04-25T09:10:06.703Z,100624.00
2019-04-25T09:12:37.879Z,100619.81
2019-04-25T09:15:08.870Z,100623.58
2019-04-25T09:17:39.506Z,100621.67
2019-04-25T09:20:13.860Z,100620.67
2019-04-25T09:22:45.579Z,100626.25
2019-04-25T09:25:16.928Z,100624.30
2019-04-25T09:27:47.599Z,100618.14
2019-04-25T09:30:18.367Z,100619.55
2019-04-25T09:32:48.940Z,100614.41
2019-04-25T09:35:20.249Z,100610.23
2019-04-25T09:37:53.400Z,100602.34
2019-04-25T09:40:24.391Z,100617.17
2019-04-25T09:42:55.720Z,100615.34
2019-04-25T09:45:36.108Z,100612.47
2019-04-25T09:48:13.097Z,100613.41
2019-04-25T09:50:49.425Z,100608.59
2019-04-25T09:53:23.172Z,100611.33
2019-04-25T09:56:06.427Z,100618.91
2019-04-25T09:58:38.628Z,100620.66
2019-04-25T10:01:13.885Z,100622.27
2019-04-25T10:03:45.731Z,100624.02
2019-04-25T10:06:18.025Z,100626.47
2019-04-25T10:08:48.674Z,100620.10
2019-04-25T10:11:19.334Z,100621.50
2019-04-25T10:14:18.585Z,100618.64
2019-04-25T10:16:49.185Z,100617.30
2019-04-25T10:19:19.845Z,100618.98
2019-04-25T10:21:50.452Z,100622.28
2019-04-25T10:24:21.132Z,100620.84
2019-04-25T10:26:53.559Z,100617.34
2019-04-25T10:29:24.492Z,100619.38
2019-04-25T10:31:55.792Z,100615.95
2019-04-25T10:34:27.378Z,100610.15
2019-04-25T10:36:57.963Z,100607.23
2019-04-25T10:39:29.158Z,100622.04
2019-04-25T10:41:59.878Z,100617.25
2019-04-25T10:44:30.496Z,100617.57
2019-04-25T10:47:01.142Z,100614.05
2019-04-25T10:49:31.720Z,100615.38
2019-04-25T10:52:02.432Z,100611.72
2019-04-25T10:54:33.654Z,100611.88
2019-04-25T10:57:06.597Z,100615.36
2019-04-25T10:59:37.248Z,100611.98
2019-04-25T11:02:09.902Z,100607.49
2019-04-25T11:04:42.131Z,100612.99
2019-04-25T11:07:13.644Z,100599.70
2019-04-25T11:09:45.488Z,100604.14
2019-04-25T11:12:17.011Z,100604.21
2019-04-25T11:14:48.738Z,100603.08
2019-04-25T11:17:19.536Z,100607.12
2019-04-25T11:19:51.149Z,100606.34
2019-04-25T11:22:21.730Z,100606.73
2019-04-25T11:24:53.019Z,100606.86
2019-04-25T11:27:24.612Z,100608.96
2019-04-25T11:30:08.449Z,100603.67
2019-04-25T11:32:28.430Z,100598.06
2019-04-25T11:34:59.679Z,100596.81
2019-04-25T11:37:34.206Z,100598.59
2019-04-25T11:40:24.657Z,100598.34
2019-04-25T11:42:55.238Z,100603.39
2019-04-25T11:45:25.914Z,100600.43
2019-04-25T11:47:56.496Z,100598.03
2019-04-25T11:50:27.221Z,100591.92
2019-04-25T11:52:58.825Z,100599.42
2019-04-25T11:55:30.661Z,100603.27
2019-04-25T11:58:01.252Z,100601.86
2019-04-25T12:00:33.796Z,100607.91
2019-04-25T12:03:04.731Z,100599.40
2019-04-25T12:05:35.395Z,100600.30
2019-04-25T12:08:07.019Z,100603.24
2019-04-25T12:10:38.983Z,100608.22
2019-04-25T12:13:09.569Z,100605.64
2019-04-25T12:15:40.377Z,100603.98
2019-04-25T12:18:10.965Z,100598.20
2019-04-25T12:20:41.617Z,100603.36
2019-04-25T12:23:12.206Z,100606.70
2019-04-25T12:25:44.270Z,100603.42
2019-04-25T12:28:14.944Z,100599.13
2019-04-25T12:30:46.191Z,100596.00
2019-04-25T12:33:21.495Z,100608.69
2019-04-25T12:35:51.999Z,100607.34
2019-04-25T12:38:24.615Z,100599.48
2019-04-25T12:40:57.721Z,100601.88
2019-04-25T12:43:29.920Z,100605.58
2019-04-25T12:46:08.675Z,100600.16
2019-04-25T12:48:39.320Z,100597.91
2019-04-25T12:51:10.044Z,100602.20
2019-04-25T12:53:40.989Z,100594.95
2019-04-25T12:56:11.596Z,100596.16
2019-04-25T12:58:43.460Z,100592.78
2019-04-25T13:01:15.087Z,100590.00
2019-04-25T13:03:45.693Z,100588.86
2019-04-25T13:06:16.259Z,100588.03
2019-04-25T13:08:46.829Z,100588.67
2019-04-25T13:11:17.411Z,100588.27
2019-04-25T13:13:47.999Z,100588.73
2019-04-25T13:16:18.677Z,100594.69
2019-04-25T13:18:49.253Z,100582.02
2019-04-25T13:21:19.912Z,100583.67
2019-04-25T13:23:50.564Z,100579.95
2019-04-25T13:26:24.702Z,100585.06
2019-04-25T13:29:11.953Z,100588.01
2019-04-25T13:31:56.084Z,100590.41
2019-04-25T13:34:36.270Z,100587.98
2019-04-25T13:37:01.047Z,100590.20
2019-04-25T13:39:31.858Z,100585.25
2019-04-25T13:42:05.131Z,100576.14
2019-04-25T13:44:34.786Z,100569.94
2019-04-25T13:47:06.777Z,100572.08
2019-04-25T13:49:37.444Z,100566.64
2019-04-25T13:52:09.341Z,100567.66
2019-04-25T13:54:40.055Z,100556.70
2019-04-25T13:57:13.236Z,100551.28
2019-04-25T13:59:45.857Z,100556.50
2019-04-25T14:02:17.073Z,100555.47
2019-04-25T14:04:47.671Z,100553.39
2019-04-25T14:07:18.312Z,100546.05
2019-04-25T14:09:48.976Z,100547.27
2019-04-25T14:12:19.564Z,100540.67
2019-04-25T14:14:50.196Z,100543.31
2019-04-25T14:17:38.686Z,100547.84
2019-04-25T14:20:24.869Z,100547.42
2019-04-25T14:22:55.629Z,100544.92
2019-04-25T14:25:28.492Z,100545.01
2019-04-25T14:27:59.064Z,100545.16
2019-04-25T14:30:32.580Z,100547.62
2019-04-25T14:33:04.200Z,100551.55
2019-04-25T14:35:34.833Z,100553.34
2019-04-25T14:38:06.056Z,100545.68
2019-04-25T14:40:36.714Z,100544.55
2019-04-25T14:43:07.856Z,100550.01
2019-04-25T14:45:44.487Z,100541.02
2019-04-25T14:48:10.754Z,100535.27
2019-04-25T14:50:41.361Z,100535.41
2019-04-25T14:53:12.194Z,100530.80
2019-04-25T14:55:44.506Z,100530.42
2019-04-25T14:58:16.731Z,100533.41
2019-04-25T15:00:48.950Z,100530.80
2019-04-25T15:03:19.608Z,100529.53
2019-04-25T15:05:50.200Z,100533.50
2019-04-25T15:08:20.778Z,100539.92
2019-04-25T15:10:51.377Z,100538.77
2019-04-25T15:13:22.094Z,100530.89
2019-04-25T15:15:52.689Z,100532.77
2019-04-25T15:18:23.514Z,100528.27
2019-04-25T15:20:54.491Z,100530.14
2019-04-25T15:23:25.447Z,100525.80
2019-04-25T15:25:56.005Z,100524.22
2019-04-25T15:28:27.480Z,100523.42
2019-04-25T15:30:58.168Z,100522.51
2019-04-25T15:33:28.753Z,100522.40
2019-04-25T15:36:06.966Z,100523.57
2019-04-25T15:38:39.203Z,100527.03
2019-04-25T15:41:17.591Z,100527.29
2019-04-25T15:44:08.289Z,100532.30
2019-04-25T15:46:40.517Z,100531.42
2019-04-25T15:49:11.061Z,100529.52
2019-04-25T15:51:41.750Z,100524.22
2019-04-25T15:54:12.855Z,100530.82
2019-04-25T15:56:43.428Z,100518.53
2019-04-25T15:59:15.435Z,100527.75
2019-04-25T16:01:47.525Z,100523.38
2019-04-25T16:04:18.108Z,100524.98
2019-04-25T16:06:50.170Z,100524.02
2019-04-25T16:09:20.800Z,100520.16
2019-04-25T16:11:51.360Z,100521.97
2019-04-25T16:14:21.953Z,100519.61
2019-04-25T16:16:52.579Z,100523.95
2019-04-25T16:19:23.227Z,100517.77
2019-04-25T16:21:53.801Z,100522.68
2019-04-25T16:24:24.375Z,100524.82
2019-04-25T16:26:54.967Z,100530.02
2019-04-25T16:29:25.543Z,100524.98
2019-04-25T16:31:57.951Z,100529.69
2019-04-25T16:34:29.509Z,100530.39
2019-04-25T16:37:00.906Z,100527.52
2019-04-25T16:39:33.303Z,100526.84
2019-04-25T16:42:04.192Z,100529.95
2019-04-25T16:44:34.887Z,100529.11
2019-04-25T16:47:05.646Z,100530.36
2019-04-25T16:49:36.946Z,100526.75
2019-04-25T16:52:09.587Z,100533.58
2019-04-25T16:54:40.211Z,100536.05
2019-04-25T16:57:11.962Z,100529.33
2019-04-25T16:59:42.675Z,100532.30
2019-04-25T17:02:14.373Z,100529.97
2019-04-25T17:04:44.985Z,100533.73
2019-04-25T17:07:15.765Z,100537.19
2019-04-25T17:09:46.350Z,100531.98
2019-04-25T17:12:17.364Z,100536.38
2019-04-25T17:15:08.227Z,100536.22
2019-04-25T17:17:40.447Z,100537.73
2019-04-25T17:20:15.737Z,100538.71
2019-04-25T17:22:46.465Z,100538.66
2019-04-25T17:25:17.613Z,100539.09
2019-04-25T17:27:48.428Z,100541.25
2019-04-25T17:30:19.663Z,100542.03
2019-04-25T17:32:54.877Z,100536.66
2019-04-25T17:35:30.857Z,100542.68
2019-04-25T17:38:06.897Z,100543.59
2019-04-25T17:40:38.476Z,100541.54
2019-04-25T17:43:11.201Z,100547.67
2019-04-25T17:45:41.821Z,100548.09
2019-04-25T17:48:12.404Z,100553.23
2019-04-25T17:50:44.151Z,100551.89
2019-04-25T17:53:14.740Z,100551.16
2019-04-25T17:55:45.936Z,100547.84
2019-04-25T17:58:16.661Z,100557.59
2019-04-25T18:00:48.094Z,100556.11
2019-04-25T18:03:18.757Z,100562.47
2019-04-25T18:05:49.349Z,100560.00
2019-04-25T18:08:19.932Z,100567.83
2019-04-25T18:10:50.543Z,100571.14
2019-04-25T18:13:23.858Z,100570.92
2019-04-25T18:15:59.272Z,100573.39
2019-04-25T18:18:41.421Z,100576.77
2019-04-25T18:21:12.161Z,100566.53
2019-04-25T18:24:00.620Z,100570.75
2019-04-25T18:26:39.243Z,100574.97
2019-04-25T18:29:26.038Z,100578.09
2019-04-25T18:32:00.780Z,100573.41
2019-04-25T18:34:40.059Z,100581.70
2019-04-25T18:37:22.411Z,100582.78
2019-04-25T18:40:09.881Z,100584.94
2019-04-25T18:42:42.156Z,100589.78
2019-04-25T18:45:14.738Z,100578.45
2019-04-25T18:47:45.450Z,100583.47
2019-04-25T18:50:17.935Z,100579.84
2019-04-25T18:52:50.192Z,100581.38
2019-04-25T18:55:29.269Z,100573.47
2019-04-25T18:58:04.301Z,100582.20
2019-04-25T19:00:49.431Z,100582.20
2019-04-25T19:03:23.383Z,100584.66
2019-04-25T19:06:02.077Z,100587.77
2019-04-25T19:08:32.653Z,100606.05
2019-04-25T19:11:03.602Z,100584.09
2019-04-25T19:13:34.410Z,100582.63
2019-04-25T19:16:05.226Z,100587.00
2019-04-25T19:18:35.829Z,100581.45
2019-04-25T19:21:06.526Z,100580.08
2019-04-25T19:23:37.835Z,100580.03
2019-04-25T19:26:08.664Z,100573.48
2019-04-25T19:28:39.986Z,100570.56
2019-04-25T19:31:12.308Z,100578.81
2019-04-25T19:33:43.365Z,100578.72
2019-04-25T19:36:14.028Z,100578.61
2019-04-25T19:38:45.878Z,100585.45
2019-04-25T19:41:19.773Z,100584.19
2019-04-25T19:43:52.370Z,100577.11
2019-04-25T19:46:25.059Z,100577.62
2019-04-25T19:48:57.405Z,100576.78
2019-04-25T19:51:28.146Z,100570.02
2019-04-25T19:53:58.884Z,100573.94
2019-04-25T19:56:29.475Z,100568.13
2019-04-25T19:59:00.727Z,100567.80
2019-04-25T20:01:31.965Z,100564.84
2019-04-25T20:04:13.735Z,100569.39
2019-04-25T20:07:03.412Z,100564.39
2019-04-25T20:09:46.906Z,100558.68
2019-04-25T20:12:18.659Z,100562.14
2019-04-25T20:14:51.278Z,100564.80
2019-04-25T20:17:22.897Z,100561.92
2019-04-25T20:19:54.362Z,100554.12
2019-04-25T20:22:25.320Z,100559.50
2019-04-25T20:24:56.616Z,100556.75
2019-04-25T20:27:27.268Z,100558.67
2019-04-25T20:29:57.926Z,100561.50
2019-04-25T20:32:29.082Z,100561.66
2019-04-25T20:35:00.048Z,100559.17
2019-04-25T20:37:31.161Z,100557.91
2019-04-25T20:40:02.161Z,100561.15
2019-04-25T20:42:32.967Z,100564.03
2019-04-25T20:45:05.554Z,100561.50
2019-04-25T20:47:36.163Z,100555.25
2019-04-25T20:50:07.154Z,100551.48
2019-04-25T20:52:38.644Z,100556.95
2019-04-25T20:55:11.221Z,100550.84
2019-04-25T20:57:42.058Z,100553.73
2019-04-25T21:00:16.098Z,100557.06
2019-04-25T21:02:48.343Z,100552.45
2019-04-25T21:05:21.311Z,100549.69
2019-04-25T21:07:53.317Z,100548.52
2019-04-25T21:10:23.978Z,100547.44
2019-04-25T21:12:54.613Z,100545.07
2019-04-25T21:15:26.822Z,100546.00
2019-04-25T21:18:01.100Z,100547.98
2019-04-25T21:20:31.957Z,100548.53
2019-04-25T21:23:04.255Z,100551.36
2019-04-25T21:25:35.634Z,100553.42
2019-04-25T21:28:07.878Z,100544.99
2019-04-25T21:30:38.467Z,100552.00
2019-04-25T21:33:09.188Z,100549.38
2019-04-25T21:35:40.137Z,100550.39
2019-04-25T21:38:10.836Z,100548.70
2019-04-25T21:40:59.878Z,100546.04
2019-04-25T21:43:32.298Z,100540.12
2019-04-25T21:46:04.625Z,100549.26
2019-04-25T21:48:35.765Z,100546.67
2019-04-25T21:51:24.848Z,100538.41
2019-04-25T21:53:55.551Z,100538.33
2019-04-25T21:56:26.412Z,100532.20
2019-04-25T21:58:57.751Z,100538.05
2019-04-25T22:01:33.385Z,100536.93
2019-04-25T22:04:05.204Z,100540.09
2019-04-25T22:06:36.177Z,100537.01
2019-04-25T22:09:10.128Z,100537.28
2019-04-25T22:11:40.870Z,100540.80
2019-04-25T22:14:12.654Z,100540.30
2019-04-25T22:16:43.543Z,100535.30
2019-04-25T22:19:14.494Z,100534.47
2019-04-25T22:21:45.279Z,100532.18
2019-04-25T22:24:17.142Z,100523.20
2019-04-25T22:26:50.410Z,100523.84
2019-04-25T22:29:22.568Z,100521.00
2019-04-25T22:32:01.497Z,100516.05
2019-04-25T22:34:52.059Z,100514.48
2019-04-25T22:37:15.377Z,100518.24
2019-04-25T22:39:46.453Z,100517.90
2019-04-25T22:42:18.643Z,100513.81
2019-04-25T22:44:49.507Z,100512.86
2019-04-25T22:47:21.057Z,100519.38
2019-04-25T22:49:51.752Z,100517.44
2019-04-25T22:52:22.595Z,100518.48
2019-04-25T22:54:53.252Z,100509.75
2019-04-25T22:57:24.264Z,100517.63
2019-04-25T22:59:55.130Z,100513.27
2019-04-25T23:02:27.622Z,100515.48
2019-04-25T23:05:12.884Z,100513.14
2019-04-25T23:07:38.428Z,100511.32
2019-04-25T23:10:10.331Z,100510.53
2019-04-25T23:12:41.307Z,100509.89
2019-04-25T23:15:13.057Z,100508.13
2019-04-25T23:17:43.923Z,100507.55
2019-04-25T23:20:14.820Z,100510.28
2019-04-25T23:22:45.656Z,100502.08
2019-04-25T23:25:18.185Z,100504.16
2019-04-25T23:28:08.523Z,100505.84
2019-04-25T23:30:41.425Z,100502.72
2019-04-25T23:33:12.597Z,100506.77
2019-04-25T23:35:45.102Z,100504.67
2019-04-25T23:38:16.757Z,100496.60
2019-04-25T23:40:47.327Z,100493.47
2019-04-25T23:43:18.170Z,100491.78
2019-04-25T23:45:48.794Z,100497.52
2019-04-25T23:48:20.509Z,100488.07
2019-04-25T23:50:53.617Z,100486.18
2019-04-25T23:53:23.695Z,100484.30
2019-04-25T23:55:54.278Z,100485.14
2019-04-25T23:58:24.924Z,100485.20
